Afton, MN

11:22 PM CST on December 08, 2019 (GMT -0600)
Afton Hills | | Change Station
Active Advisory: Winter Weather Advisory

Elev 866 ft 44.91 °N, 92.79 °W | Updated 20 seconds ago

Overcast
Overcast
33.4 °F
Feels Like 33 °F
N
1.1
Wind Variable Wind from NNE
Gusts 1.0 mph

Today
High -- | Low -- °F
--% Chance of Precip.
Yesterday
High -- | Low -- °F
Precip. -- in
Pressure 29.72 in
Visibility 7.0 miles
Clouds Overcast 1200 ft
Windchill 33 °F
Dew Point 31 °F
Humidity 92%
Rainfall 0.05 in
Snow Depth Not available.
7:35 AM 4:29 PM
Waxing Gibbous, 91% visible
METAR K21D 090515Z AUTO 00000KT 7SM OVC012 00/00 A2972 RMK AO2
Pressure 29.72 in
Visibility 7.0 miles
Clouds Overcast 1200 ft
Windchill 33 °F
Dew Point 31 °F
Humidity 92%
Rainfall 0.05 in
Snow Depth Not available.
7:35 AM 4:29 PM
Waxing Gibbous, 91% visible
METAR K21D 090515Z AUTO 00000KT 7SM OVC012 00/00 A2972 RMK AO2

Get Your Daily Forecast Email!

Thanks for signing up!

Be on the lookout for a verification email in your inbox.

You'll start receiving severe weather alerts in your inbox..

×

10-Day Weather Forecast

Almanac

Astronomy

Dec. 08, 2019 Rise Set
Actual Time
Civil Twilight
Nautical Twilight
Astronomical Twilight
Moon
Length of Visible Light
Length of Day
Tomorrow will be .
, % of the Moon is Illuminated

Today's Extremes

State Highs State Lows

Community

WunderPhotos

Category 6

Welcome to Category 6. This is the collective home for Weather Underground's featured writeups by Dr. Jeff Masters (right), Bob Henson (left), Chris Burt, and other regular contributors.

Nearby

Air Quality

  Air Quality AQ Index Pollutant
Not available.

Snow Depth

Station Depth Elevation

Earthquake Activity

City Distance Mag. Time & Date
Minimum magnitude displayed is 2.5.

Coastal Water Temperatures

Place Temperature

Stations

Nearby Weather Stations

Station Location Temp. Windchill Dew Point Humidity Wind Precip. Elev Updated Type
                   

Watches & Warnings

Winter Weather Advisory
Issued: 7:41 PM CST Dec. 8, 2019 – National Weather Service

... Winter Weather Advisory now in effect from 3 am to noon CST
Monday...

* what... snow expected. Total snow accumulations of 2 to 4
inches.

* Where... portions of central and east central Minnesota.

* When... from 3 am to noon CST Monday.

* Impacts... plan on slippery Road conditions. The hazardous
conditions will impact the Monday morning commute.

Precautionary/preparedness actions...

Slow down and use caution while traveling.

The latest Road conditions for the state you are calling from can
be obtained by calling 5 1 1.